Isola Bianca — ICLD — position and weather

sailwx.info

Track history (hours):
 
Tides and Currents Weather Stations Pressure Air Temp Water Temp Dewpoint Dewpoint Depression Visibility Wind Speed Wind Dir Waves Ship Positions

Isola Bianca

Last reported at 2015-Aug-27 10:28 UTC. Time now 2015-Aug-28 09:37 UTC.
Position N 32°49' E 012°40'.

Length 183 m; draft 11.5 m.

Type: Ship. MMSI: 247245200.

Date/timePositionNaut miles runAvg speedWind from/ knotsBaromVisibWave heightAir tempDewpointWater temp
2015-Aug-27 10:28N 32°49' E 012°40'0 0.0
2015-Aug-27 09:31N 32°49' E 012°40'0 0.0
2015-Aug-27 08:28N 32°49' E 012°40'0 0.0
2015-Aug-27 07:31N 32°49' E 012°40'0 0.0
2015-Aug-27 06:33N 32°49' E 012°40'6 6.2
2015-Aug-27 05:33N 32°54' E 012°36'1412.9
2015-Aug-27 04:30N 33°06' E 012°28'9112.3
2015-Aug-26 21:06N 34°03' E 011°03'611.8
2015-Aug-26 20:33N 34°05' E 010°56'1212.3
2015-Aug-26 19:33N 34°05' E 010°41'28 1.5
2015-Aug-26 00:30N 34°16' E 010°10'0 0.0
2015-Aug-25 23:24N 34°16' E 010°10'1 0.5
2015-Aug-25 21:34N 34°16' E 010°09'8 7.3
2015-Aug-25 20:27N 34°11' E 010°17'1112.8
2015-Aug-25 19:33N 34°12' E 010°31'1312.8
2015-Aug-25 18:33N 34°14' E 010°46'1312.8
2015-Aug-25 17:33N 34°15' E 011°01'2512.7
2015-Aug-25 15:33N 34°27' E 011°29'1312.6
2015-Aug-25 14:33N 34°33' E 011°42'1312.4
2015-Aug-25 13:32N 34°39' E 011°56'1212.4
2015-Aug-25 12:32N 34°45' E 012°09'18611.6
2015-Aug-24 20:33N 37°31' E 010°26'1813.1
2015-Aug-24 19:12N 37°35' E 010°04'913.2
2015-Aug-24 18:33N 37°35' E 009°53'1313.3
2015-Aug-24 17:33N 37°36' E 009°37'1313.3
2015-Aug-24 16:32N 37°36' E 009°20'7712.4
2015-Aug-24 10:22N 37°29' E 007°43'15212.7
2015-Aug-23 22:23N 37°09' E 004°34'9012.8
2015-Aug-23 15:24N 36°57' E 002°43'1112.4
2015-Aug-23 14:31N 36°55' E 002°29'3812.2
2015-Aug-23 11:26N 36°48' E 001°43'5713.3
2015-Aug-23 07:08N 36°38' E 000°33'913.7
2015-Aug-23 06:30N 36°36' E 000°22'1212.8
2015-Aug-23 05:33N 36°34' E 000°08'7712.6
2015-Aug-22 23:28N 36°20' W 001°26'1212.7
2015-Aug-22 22:29N 36°18' W 001°42'37512.7
2015-Aug-21 17:04N 36°04' W 009°26'712.4
2015-Aug-21 16:29N 36°07' W 009°34'1312.6
2015-Aug-21 15:26N 36°11' W 009°50'8512.3
2015-Aug-21 08:29N 36°38' W 011°31'1212.5
2015-Aug-21 07:31N 36°41' W 011°45'1212.0
2015-Aug-21 06:30N 36°45' W 011°60'1212.2
2015-Aug-21 05:33N 36°48' W 012°13'2412.2
2015-Aug-21 03:33N 36°56' W 012°42'1212.1
2015-Aug-21 02:33N 36°60' W 012°57'1712.2
2015-Aug-21 01:08N 37°05' W 013°18'2312.1
2015-Aug-20 23:16N 37°12' W 013°45'1312.0
2015-Aug-20 22:09N 37°15' W 014°01'1112.3
2015-Aug-20 21:14N 37°17' W 014°15'812.4
2015-Aug-20 20:33N 37°19' W 014°25'55911.4
2015-Aug-18 19:33N 39°26' W 025°59'6812.5
2015-Aug-18 14:05N 39°38' W 027°26'2412.6
2015-Aug-18 12:11N 39°43' W 027°57'812.7
2015-Aug-18 11:33N 39°44' W 028°07'1312.8
2015-Aug-18 10:33N 39°47' W 028°23'1312.9
2015-Aug-18 09:33N 39°49' W 028°40'1312.9
2015-Aug-18 08:33N 39°51' W 028°56'1312.6
2015-Aug-18 07:33N 39°53' W 029°12'1312.5
2015-Aug-18 06:33N 39°56' W 029°28'1212.4
2015-Aug-18 05:33N 39°58' W 029°44'1412.4
2015-Aug-18 04:27N 39°60' W 030°02'612.6
2015-Aug-18 03:58N 40°01' W 030°10'712.8
2015-Aug-18 03:24N 40°01' W 030°19'1112.7
2015-Aug-18 02:32N 40°02' W 030°34'  
Track history (hours):
 
Tides and Currents Weather Stations Pressure Air Temp Water Temp Dewpoint Dewpoint Depression Visibility Wind Speed Wind Dir Waves Ship Positions

Isola Bianca

Last reported at 2015-Aug-27 10:28 UTC. Time now 2015-Aug-28 09:37 UTC.
Position N 32°49' E 012°40'.

Length 183 m; draft 11.5 m.

Type: Ship. MMSI: 247245200.

Date/timePositionNaut miles runAvg speedWind from/ knotsBaromVisibWave heightAir tempDewpointWater temp
2015-Aug-27 10:28N 32°49' E 012°40'0 0.0
2015-Aug-27 09:31N 32°49' E 012°40'0 0.0
2015-Aug-27 08:28N 32°49' E 012°40'0 0.0
2015-Aug-27 07:31N 32°49' E 012°40'0 0.0
2015-Aug-27 06:33N 32°49' E 012°40'6 6.2
2015-Aug-27 05:33N 32°54' E 012°36'1412.9
2015-Aug-27 04:30N 33°06' E 012°28'9112.3
2015-Aug-26 21:06N 34°03' E 011°03'611.8
2015-Aug-26 20:33N 34°05' E 010°56'1212.3
2015-Aug-26 19:33N 34°05' E 010°41'28 1.5
2015-Aug-26 00:30N 34°16' E 010°10'0 0.0
2015-Aug-25 23:24N 34°16' E 010°10'1 0.5
2015-Aug-25 21:34N 34°16' E 010°09'8 7.3
2015-Aug-25 20:27N 34°11' E 010°17'1112.8
2015-Aug-25 19:33N 34°12' E 010°31'1312.8
2015-Aug-25 18:33N 34°14' E 010°46'1312.8
2015-Aug-25 17:33N 34°15' E 011°01'2512.7
2015-Aug-25 15:33N 34°27' E 011°29'1312.6
2015-Aug-25 14:33N 34°33' E 011°42'1312.4
2015-Aug-25 13:32N 34°39' E 011°56'1212.4
2015-Aug-25 12:32N 34°45' E 012°09'18611.6
2015-Aug-24 20:33N 37°31' E 010°26'1813.1
2015-Aug-24 19:12N 37°35' E 010°04'913.2
2015-Aug-24 18:33N 37°35' E 009°53'1313.3
2015-Aug-24 17:33N 37°36' E 009°37'1313.3
2015-Aug-24 16:32N 37°36' E 009°20'7712.4
2015-Aug-24 10:22N 37°29' E 007°43'15212.7
2015-Aug-23 22:23N 37°09' E 004°34'9012.8
2015-Aug-23 15:24N 36°57' E 002°43'1112.4
2015-Aug-23 14:31N 36°55' E 002°29'3812.2
2015-Aug-23 11:26N 36°48' E 001°43'5713.3
2015-Aug-23 07:08N 36°38' E 000°33'913.7
2015-Aug-23 06:30N 36°36' E 000°22'1212.8
2015-Aug-23 05:33N 36°34' E 000°08'7712.6
2015-Aug-22 23:28N 36°20' W 001°26'1212.7
2015-Aug-22 22:29N 36°18' W 001°42'37512.7
2015-Aug-21 17:04N 36°04' W 009°26'712.4
2015-Aug-21 16:29N 36°07' W 009°34'1312.6
2015-Aug-21 15:26N 36°11' W 009°50'8512.3
2015-Aug-21 08:29N 36°38' W 011°31'1212.5
2015-Aug-21 07:31N 36°41' W 011°45'1212.0
2015-Aug-21 06:30N 36°45' W 011°60'1212.2
2015-Aug-21 05:33N 36°48' W 012°13'2412.2
2015-Aug-21 03:33N 36°56' W 012°42'1212.1
2015-Aug-21 02:33N 36°60' W 012°57'1712.2
2015-Aug-21 01:08N 37°05' W 013°18'2312.1
2015-Aug-20 23:16N 37°12' W 013°45'1312.0
2015-Aug-20 22:09N 37°15' W 014°01'1112.3
2015-Aug-20 21:14N 37°17' W 014°15'812.4
2015-Aug-20 20:33N 37°19' W 014°25'55911.4
2015-Aug-18 19:33N 39°26' W 025°59'6812.5
2015-Aug-18 14:05N 39°38' W 027°26'2412.6
2015-Aug-18 12:11N 39°43' W 027°57'812.7
2015-Aug-18 11:33N 39°44' W 028°07'1312.8
2015-Aug-18 10:33N 39°47' W 028°23'1312.9
2015-Aug-18 09:33N 39°49' W 028°40'1312.9
2015-Aug-18 08:33N 39°51' W 028°56'1312.6
2015-Aug-18 07:33N 39°53' W 029°12'1312.5
2015-Aug-18 06:33N 39°56' W 029°28'1212.4
2015-Aug-18 05:33N 39°58' W 029°44'1412.4
2015-Aug-18 04:27N 39°60' W 030°02'612.6
2015-Aug-18 03:58N 40°01' W 030°10'712.8
2015-Aug-18 03:24N 40°01' W 030°19'1112.7
2015-Aug-18 02:32N 40°02' W 030°34'  

Dump ship's entire track history